Terminal Aerodrome Forecast
Issued by NWS Memphis, TN

Home | Current Version | Previous Version | Text Only | Print | Product List | Glossary On
Versions: 1 2 3 4 5 6 7 8 9 10 11 12 13 14 15 16 17 18 19 20 21 22 23 24 25
000
FTUS44 KMEG 231720
TAFMEM
TAF
KMEM 231720Z 2318/2418 16009KT P6SM FEW050
     FM240500 16014G21KT P6SM SCT250
     FM240800 17016G23KT P6SM BKN018 WS020/19050KT
     FM241700 17018G28KT P6SM BKN040 WS020/19050KT=

USA.gov is the U.S. government's official web portal to all federal, state and local government web resources and services.